Time;durP1;ratioP1;P1;durP2;ratioP2;P2;SDS_P1;SDS_P2;PMS_P1;PMS_P2;Temp;Humidity;BMP_temperature;BMP_pressure;BME280_temperature;BME280_humidity;BME280_pressure;Samples;Min_cycle;Max_cycle;Signal;HPM_P1;HPM_P2
2022/09/10 00:00:04;;;;;;;2.85;2.00;;;;;;;-145.23;100.00;58621.06;4938660;28;20248;-56
2022/09/10 00:02:32;;;;;;;2.70;2.05;;;;;;;-145.23;100.00;58621.06;4945350;28;20651;-57
2022/09/10 00:04:59;;;;;;;3.13;1.83;;;;;;;-145.23;100.00;58621.06;4944671;28;20239;-56
2022/09/10 00:07:25;;;;;;;4.20;2.40;;;;;;;-145.23;100.00;58621.06;4937791;28;20630;-60
2022/09/10 00:09:52;;;;;;;6.40;3.53;;;;;;;-145.23;100.00;58621.06;4945406;28;20678;-57
2022/09/10 00:12:18;;;;;;;2.78;1.95;;;;;;;-145.23;100.00;58621.06;4935971;28;20559;-56
2022/09/10 00:14:45;;;;;;;4.50;3.25;;;;;;;-145.23;100.00;58621.06;4930545;28;20235;-57
2022/09/10 00:17:13;;;;;;;4.10;2.25;;;;;;;-145.23;100.00;58621.06;4937875;28;20240;-58
2022/09/10 00:19:39;;;;;;;5.53;3.03;;;;;;;-145.23;100.00;58621.06;4945915;28;20239;-57
2022/09/10 00:22:06;;;;;;;3.60;2.40;;;;;;;-145.23;100.00;58621.06;4944745;28;20596;-56
2022/09/10 00:24:33;;;;;;;3.00;1.85;;;;;;;-145.23;100.00;58621.06;4945657;28;20742;-61
2022/09/10 00:27:00;;;;;;;1.90;1.70;;;;;;;-145.23;100.00;58621.06;4944842;28;20314;-57
2022/09/10 00:29:26;;;;;;;4.20;3.10;;;;;;;-145.23;100.00;58621.06;4943854;28;20255;-56
2022/09/10 00:31:53;;;;;;;3.33;2.35;;;;;;;-145.23;100.00;58621.06;4938873;28;20239;-56
2022/09/10 00:34:21;;;;;;;2.67;2.25;;;;;;;-145.23;100.00;58621.06;4945062;28;20280;-56
2022/09/10 00:36:48;;;;;;;3.28;2.22;;;;;;;-145.23;100.00;58621.06;4943071;28;20340;-56
2022/09/10 00:39:15;;;;;;;3.15;2.00;;;;;;;-145.23;100.00;58621.06;4936589;28;20239;-57
2022/09/10 00:41:44;;;;;;;4.10;2.15;;;;;;;-145.23;100.00;58621.06;4940848;28;20242;-57
2022/09/10 00:44:43;;;;;;;3.50;2.55;;;;;;;-145.23;100.00;58621.06;4932954;28;20238;-56
2022/09/10 00:47:13;;;;;;;2.53;1.80;;;;;;;-145.23;100.00;58621.06;4936003;28;20257;-56
2022/09/10 00:49:43;;;;;;;4.05;1.85;;;;;;;-145.23;100.00;58621.06;4942499;28;20240;-57
2022/09/10 00:52:11;;;;;;;2.05;1.52;;;;;;;-145.23;100.00;58621.06;4942548;28;20239;-56
2022/09/10 00:54:39;;;;;;;1.70;1.60;;;;;;;-145.23;100.00;58621.06;4946192;28;20261;-55
2022/09/10 00:57:10;;;;;;;5.15;1.98;;;;;;;-145.23;100.00;58621.06;4944599;28;20705;-56
2022/09/10 00:59:37;;;;;;;7.30;2.58;;;;;;;-145.23;100.00;58621.06;4931484;28;20236;-56
2022/09/10 01:02:04;;;;;;;6.15;3.25;;;;;;;-145.23;100.00;58621.06;4943720;28;20705;-56
2022/09/10 01:04:31;;;;;;;4.32;3.30;;;;;;;-145.23;100.00;58621.06;4943481;28;20239;-56
2022/09/10 01:06:59;;;;;;;3.55;2.30;;;;;;;-145.23;100.00;58621.06;4943033;28;20684;-57
2022/09/10 01:09:26;;;;;;;2.15;1.95;;;;;;;-145.23;100.00;58621.06;4944776;28;20231;-56
2022/09/10 01:12:03;;;;;;;3.60;1.92;;;;;;;-145.23;100.00;58621.06;4943344;28;20234;-56
2022/09/10 01:14:43;;;;;;;4.15;2.20;;;;;;;-145.23;100.00;58621.06;4945179;28;20234;-56
2022/09/10 01:17:17;;;;;;;2.05;1.85;;;;;;;-145.23;100.00;58621.06;4942850;28;20270;-57
2022/09/10 01:20:13;;;;;;;2.17;1.88;;;;;;;-145.23;100.00;58621.06;4937096;28;20235;-55
2022/09/10 01:22:56;;;;;;;4.88;2.03;;;;;;;-145.23;100.00;58621.06;4941326;28;20577;-56
2022/09/10 01:25:32;;;;;;;3.00;2.00;;;;;;;-145.23;100.00;58621.06;4945142;28;20253;-56
2022/09/10 01:28:03;;;;;;;3.03;2.75;;;;;;;-145.23;100.00;58621.06;4943824;28;20814;-55
2022/09/10 01:30:33;;;;;;;3.38;2.10;;;;;;;-145.23;100.00;58621.06;4939179;28;20238;-57
2022/09/10 01:33:10;;;;;;;5.53;2.65;;;;;;;-145.23;100.00;58621.06;4940480;28;20246;-56
2022/09/10 01:35:39;;;;;;;2.60;2.22;;;;;;;-145.23;100.00;58621.06;4938376;28;20245;-56
2022/09/10 01:38:14;;;;;;;2.60;2.13;;;;;;;-145.23;100.00;58621.06;4939233;28;20272;-56
2022/09/10 01:40:42;;;;;;;4.70;3.78;;;;;;;-145.23;100.00;58621.06;4936842;28;20253;-56
2022/09/10 01:43:11;;;;;;;3.15;2.08;;;;;;;-145.23;100.00;58621.06;4940215;28;20324;-56
2022/09/10 01:45:44;;;;;;;3.10;2.13;;;;;;;-145.23;100.00;58621.06;4941364;28;20245;-56
2022/09/10 01:48:28;;;;;;;2.70;2.20;;;;;;;-145.23;100.00;58621.06;4947631;28;20633;-57
2022/09/10 01:51:03;;;;;;;3.38;2.08;;;;;;;-145.23;100.00;58621.06;4945901;28;20231;-56
2022/09/10 01:53:43;;;;;;;3.72;1.98;;;;;;;-145.23;100.00;58621.06;4944666;28;20231;-55
2022/09/10 01:56:19;;;;;;;2.83;1.60;;;;;;;-145.23;100.00;58621.06;4939187;28;20342;-55
2022/09/10 01:58:47;;;;;;;2.03;1.70;;;;;;;-145.23;100.00;58621.06;4947217;28;20586;-55
2022/09/10 02:01:16;;;;;;;4.15;2.25;;;;;;;-145.23;100.00;58621.06;4941213;28;20249;-56
2022/09/10 02:03:46;;;;;;;5.82;2.33;;;;;;;-145.23;100.00;58621.06;4947356;28;20231;-56
2022/09/10 02:06:15;;;;;;;1.98;1.80;;;;;;;-145.23;100.00;58621.06;4944107;28;20343;-56
2022/09/10 02:08:43;;;;;;;1.10;1.10;;;;;;;-145.23;100.00;58621.06;4948138;28;20258;-56
2022/09/10 02:11:13;;;;;;;5.68;2.20;;;;;;;-145.23;100.00;58621.06;4946367;28;20227;-56
2022/09/10 02:13:41;;;;;;;4.47;2.05;;;;;;;-145.23;100.00;58621.06;4940369;28;20231;-57
2022/09/10 02:16:11;;;;;;;2.35;2.15;;;;;;;-145.23;100.00;58621.06;4948010;28;20235;-57
2022/09/10 02:18:38;;;;;;;1.65;1.30;;;;;;;-145.23;100.00;58621.06;4947879;28;20243;-55
2022/09/10 02:21:05;;;;;;;4.65;1.80;;;;;;;-145.23;100.00;58621.06;4946378;28;20243;-56
2022/09/10 02:23:37;;;;;;;1.70;1.60;;;;;;;-145.23;100.00;58621.06;4946936;28;20239;-64
2022/09/10 02:26:03;;;;;;;5.10;1.95;;;;;;;-145.23;100.00;58621.06;4939782;28;20278;-57
2022/09/10 02:28:30;;;;;;;2.47;1.85;;;;;;;-145.23;100.00;58621.06;4947292;28;20326;-56
2022/09/10 02:30:57;;;;;;;2.70;1.67;;;;;;;-145.23;100.00;58621.06;4945091;28;20262;-57
2022/09/10 02:33:25;;;;;;;2.35;1.92;;;;;;;-145.23;100.00;58621.06;4932144;28;20235;-56
2022/09/10 02:35:52;;;;;;;2.42;1.85;;;;;;;-145.23;100.00;58621.06;4931067;28;20228;-56
2022/09/10 02:38:20;;;;;;;2.45;1.60;;;;;;;-145.23;100.00;58621.06;4947262;28;20267;-56
2022/09/10 02:40:47;;;;;;;4.13;2.67;;;;;;;-145.23;100.00;58621.06;4942888;28;20813;-56
2022/09/10 02:43:14;;;;;;;1.75;1.52;;;;;;;-145.23;100.00;58621.06;4946823;28;20241;-56
2022/09/10 02:45:41;;;;;;;2.40;2.13;;;;;;;-145.23;100.00;58621.06;4934376;28;20235;-56
2022/09/10 02:48:07;;;;;;;3.38;2.25;;;;;;;-145.23;100.00;58621.06;4945505;28;20239;-56
2022/09/10 02:50:35;;;;;;;4.50;2.40;;;;;;;-145.23;100.00;58621.06;4940541;28;20362;-56
2022/09/10 02:53:02;;;;;;;2.50;1.67;;;;;;;-145.23;100.00;58621.06;4939785;28;20610;-56
2022/09/10 02:55:28;;;;;;;3.53;2.05;;;;;;;-145.23;100.00;58621.06;4928236;28;20254;-55
2022/09/10 02:57:55;;;;;;;8.30;2.58;;;;;;;-145.23;100.00;58621.06;4935994;28;20248;-55
2022/09/10 03:00:21;;;;;;;2.83;2.10;;;;;;;-145.23;100.00;58621.06;4932058;28;20235;-56
2022/09/10 03:02:48;;;;;;;1.92;1.75;;;;;;;-145.23;100.00;58621.06;4935715;28;20255;-57
2022/09/10 03:05:15;;;;;;;2.28;1.70;;;;;;;-145.23;100.00;58621.06;4936102;28;20231;-56
2022/09/10 03:07:43;;;;;;;2.17;1.80;;;;;;;-145.23;100.00;58621.06;4940566;28;20246;-57
2022/09/10 03:10:10;;;;;;;5.18;2.30;;;;;;;-145.23;100.00;58621.06;4946628;28;20868;-57
2022/09/10 03:12:37;;;;;;;2.78;1.65;;;;;;;-145.23;100.00;58621.06;4939582;28;20234;-56
2022/09/10 03:15:05;;;;;;;6.80;2.35;;;;;;;-145.23;100.00;58621.06;4941021;28;20236;-56
2022/09/10 03:17:32;;;;;;;2.15;2.00;;;;;;;-145.23;100.00;58621.06;4945401;28;20261;-57
2022/09/10 03:19:58;;;;;;;2.72;2.13;;;;;;;-145.23;100.00;58621.06;4944844;28;20257;-56
2022/09/10 03:22:25;;;;;;;2.55;1.88;;;;;;;-145.23;100.00;58621.06;4947256;28;20254;-57
2022/09/10 03:24:53;;;;;;;3.20;2.08;;;;;;;-145.23;100.00;58621.06;4936369;28;20419;-55
2022/09/10 03:27:19;;;;;;;5.20;2.22;;;;;;;-145.23;100.00;58621.06;4938944;28;20628;-55
2022/09/10 03:29:46;;;;;;;2.40;2.17;;;;;;;-145.23;100.00;58621.06;4945542;28;20232;-58
2022/09/10 03:32:12;;;;;;;2.50;2.30;;;;;;;-145.23;100.00;58621.06;4938103;28;20729;-56
2022/09/10 03:34:39;;;;;;;3.28;1.98;;;;;;;-145.23;100.00;58621.06;4947641;28;20235;-56
2022/09/10 03:37:06;;;;;;;2.40;2.20;;;;;;;-145.23;100.00;58621.06;4942812;28;20352;-56
2022/09/10 03:39:32;;;;;;;3.78;2.20;;;;;;;-145.23;100.00;58621.06;4936897;28;20307;-56
2022/09/10 03:42:04;;;;;;;2.13;1.85;;;;;;;-145.23;100.00;58621.06;4943997;28;20251;-56
2022/09/10 03:44:32;;;;;;;2.20;2.00;;;;;;;-145.23;100.00;58621.06;4939608;28;20318;-56
2022/09/10 03:46:59;;;;;;;3.10;2.17;;;;;;;-145.23;100.00;58621.06;4946128;28;21240;-56
2022/09/10 03:49:25;;;;;;;5.72;2.35;;;;;;;-145.23;100.00;58621.06;4945168;28;20235;-56
2022/09/10 03:51:52;;;;;;;6.85;2.55;;;;;;;-145.23;100.00;58621.06;4937794;28;20593;-55
2022/09/10 03:54:18;;;;;;;2.80;2.25;;;;;;;-145.23;100.00;58621.06;4928345;28;20589;-57
2022/09/10 03:56:45;;;;;;;2.25;1.92;;;;;;;-145.23;100.00;58621.06;4927939;28;20235;-56
2022/09/10 03:59:13;;;;;;;4.13;2.70;;;;;;;-145.23;100.00;58621.06;4946723;28;20239;-56
2022/09/10 04:01:40;;;;;;;2.83;2.20;;;;;;;-145.23;100.00;58621.06;4942929;28;20326;-57
2022/09/10 04:04:08;;;;;;;3.05;2.00;;;;;;;-145.23;100.00;58621.06;4946733;28;20338;-56
2022/09/10 04:06:36;;;;;;;5.03;2.33;;;;;;;-145.23;100.00;58621.06;4945040;28;20281;-57
2022/09/10 04:09:02;;;;;;;2.90;2.08;;;;;;;-145.23;100.00;58621.06;4931580;28;20801;-56
2022/09/10 04:11:29;;;;;;;1.98;1.80;;;;;;;-145.23;100.00;58621.06;4941754;28;20239;-56
2022/09/10 04:13:56;;;;;;;8.10;2.72;;;;;;;-145.23;100.00;58621.06;4945702;28;20281;-56
2022/09/10 04:16:24;;;;;;;2.60;2.25;;;;;;;-145.23;100.00;58621.06;4936992;28;20232;-56
2022/09/10 04:18:51;;;;;;;6.43;2.42;;;;;;;-145.23;100.00;58621.06;4941903;28;20246;-57
2022/09/10 04:21:17;;;;;;;1.90;1.80;;;;;;;-145.23;100.00;58621.06;4943532;28;20578;-56
2022/09/10 04:23:44;;;;;;;3.78;2.25;;;;;;;-145.23;100.00;58621.06;4937246;28;20231;-55
2022/09/10 04:26:13;;;;;;;3.83;2.22;;;;;;;-145.23;100.00;58621.06;4939781;28;20313;-57
2022/09/10 04:28:40;;;;;;;4.40;2.05;;;;;;;-145.23;100.00;58621.06;4939443;28;20631;-56
2022/09/10 04:31:06;;;;;;;2.95;1.63;;;;;;;-145.23;100.00;58621.06;4946242;28;20231;-59
2022/09/10 04:33:34;;;;;;;2.08;1.92;;;;;;;-145.23;100.00;58621.06;4935765;28;20255;-58
2022/09/10 04:36:02;;;;;;;2.55;2.20;;;;;;;-145.23;100.00;58621.06;4926331;28;20228;-57
2022/09/10 04:38:29;;;;;;;2.30;2.15;;;;;;;-145.23;100.00;58621.06;4943719;28;20570;-56
2022/09/10 04:40:56;;;;;;;2.65;1.88;;;;;;;-145.23;100.00;58621.06;4939965;28;20649;-56
2022/09/10 04:43:24;;;;;;;4.25;2.45;;;;;;;-145.23;100.00;58621.06;4945835;28;20239;-56
2022/09/10 04:45:51;;;;;;;3.95;2.45;;;;;;;-145.23;100.00;58621.06;4945872;28;20250;-57
2022/09/10 04:48:17;;;;;;;5.57;2.42;;;;;;;-145.23;100.00;58621.06;4944669;28;20322;-55
2022/09/10 04:50:45;;;;;;;2.90;1.98;;;;;;;-145.23;100.00;58621.06;4937054;28;20610;-55
2022/09/10 04:53:12;;;;;;;3.15;2.55;;;;;;;-145.23;100.00;58621.06;4944379;28;20239;-56
2022/09/10 04:55:40;;;;;;;2.20;2.00;;;;;;;-145.23;100.00;58621.06;4932013;28;20272;-56
2022/09/10 04:58:06;;;;;;;2.75;2.35;;;;;;;-145.23;100.00;58621.06;4934507;28;20324;-57
2022/09/10 05:00:33;;;;;;;6.25;3.15;;;;;;;-145.23;100.00;58621.06;4943719;28;20243;-56
2022/09/10 05:02:59;;;;;;;2.70;2.50;;;;;;;-145.23;100.00;58621.06;4937851;28;20262;-55
2022/09/10 05:05:27;;;;;;;2.40;2.20;;;;;;;-145.23;100.00;58621.06;4945711;28;20345;-57
2022/09/10 05:07:55;;;;;;;3.42;2.40;;;;;;;-145.23;100.00;58621.06;4935482;28;20274;-56
2022/09/10 05:10:22;;;;;;;3.55;2.22;;;;;;;-145.23;100.00;58621.06;4943023;28;20238;-55
2022/09/10 05:12:48;;;;;;;3.17;2.20;;;;;;;-145.23;100.00;58621.06;4939169;28;20231;-57
2022/09/10 05:15:15;;;;;;;3.20;2.22;;;;;;;-145.23;100.00;58621.06;4943266;28;20327;-56
2022/09/10 05:17:42;;;;;;;3.40;2.63;;;;;;;-145.23;100.00;58621.06;4934114;28;20246;-57
2022/09/10 05:20:09;;;;;;;3.20;2.35;;;;;;;-145.23;100.00;58621.06;4949168;28;20712;-54
2022/09/10 05:22:36;;;;;;;3.83;2.50;;;;;;;-145.23;100.00;58621.06;4946440;28;20231;-56
2022/09/10 05:25:05;;;;;;;4.60;2.30;;;;;;;-145.23;100.00;58621.06;4937653;28;20235;-55
2022/09/10 05:27:32;;;;;;;5.28;2.75;;;;;;;-145.23;100.00;58621.06;4942748;28;20235;-55
2022/09/10 05:29:58;;;;;;;3.45;2.45;;;;;;;-145.23;100.00;58621.06;4947523;28;20335;-56
2022/09/10 05:32:25;;;;;;;4.03;2.42;;;;;;;-145.23;100.00;58621.06;4948575;28;20321;-56
2022/09/10 05:34:51;;;;;;;2.50;2.30;;;;;;;-145.23;100.00;58621.06;4948066;28;20317;-57
2022/09/10 05:37:18;;;;;;;4.00;2.38;;;;;;;-145.23;100.00;58621.06;4940903;28;20240;-57
2022/09/10 05:39:45;;;;;;;5.07;2.15;;;;;;;-145.23;100.00;58621.06;4946367;28;20251;-57
2022/09/10 05:42:14;;;;;;;2.40;2.03;;;;;;;-145.23;100.00;58621.06;4940254;28;20243;-57
2022/09/10 05:44:40;;;;;;;2.75;2.53;;;;;;;-145.23;100.00;58621.06;4942655;28;20252;-57
2022/09/10 05:47:07;;;;;;;3.15;2.30;;;;;;;-145.23;100.00;58621.06;4932747;28;20259;-56
2022/09/10 05:49:34;;;;;;;2.28;2.03;;;;;;;-145.23;100.00;58621.06;4940593;28;20238;-56
2022/09/10 05:52:09;;;;;;;2.80;2.60;;;;;;;-145.23;100.00;58621.06;4947978;28;20239;-61
2022/09/10 05:54:35;;;;;;;4.20;2.10;;;;;;;-145.23;100.00;58621.06;4947196;28;20344;-56
2022/09/10 05:57:02;;;;;;;4.35;2.85;;;;;;;-145.23;100.00;58621.06;4947885;28;20282;-55
2022/09/10 05:59:30;;;;;;;2.53;1.98;;;;;;;-145.23;100.00;58621.06;4944100;28;20367;-56
2022/09/10 06:01:56;;;;;;;2.95;2.10;;;;;;;-145.23;100.00;58621.06;4942403;28;20327;-62
2022/09/10 06:04:23;;;;;;;5.00;2.42;;;;;;;-145.23;100.00;58621.06;4948500;28;20578;-55
2022/09/10 06:06:50;;;;;;;2.30;2.10;;;;;;;-145.23;100.00;58621.06;4951596;28;20231;-55
2022/09/10 06:09:18;;;;;;;3.10;1.98;;;;;;;-145.23;100.00;58621.06;4946464;28;20247;-56
2022/09/10 06:11:44;;;;;;;2.17;1.98;;;;;;;-145.23;100.00;58621.06;4955770;28;20322;-56
2022/09/10 06:14:13;;;;;;;2.03;1.92;;;;;;;-145.23;100.00;58621.06;4949798;28;20239;-57
2022/09/10 06:16:44;;;;;;;2.63;1.92;;;;;;;-145.23;100.00;58621.06;4950657;28;20246;-57
2022/09/10 06:19:10;;;;;;;2.15;2.05;;;;;;;-145.23;100.00;58621.06;4938777;28;20259;-59
2022/09/10 06:21:38;;;;;;;3.20;2.20;;;;;;;-145.23;100.00;58621.06;4941862;28;20246;-55
2022/09/10 06:24:05;;;;;;;4.07;2.20;;;;;;;-145.23;100.00;58621.06;4944696;28;20243;-61
2022/09/10 06:26:31;;;;;;;2.60;2.40;;;;;;;-145.23;100.00;58621.06;4947130;28;20340;-55
2022/09/10 06:28:58;;;;;;;3.55;2.13;;;;;;;-145.23;100.00;58621.06;4950643;28;20635;-56
2022/09/10 06:31:25;;;;;;;4.35;2.53;;;;;;;-145.23;100.00;58621.06;4938662;28;20235;-56
2022/09/10 06:33:53;;;;;;;3.35;2.00;;;;;;;-145.23;100.00;58621.06;4951332;28;20235;-57
2022/09/10 06:36:20;;;;;;;4.32;2.33;;;;;;;-145.23;100.00;58621.06;4947171;28;20235;-56
2022/09/10 06:38:48;;;;;;;4.68;2.38;;;;;;;-145.23;100.00;58621.06;4948876;28;20694;-55
2022/09/10 06:41:16;;;;;;;2.05;1.90;;;;;;;-145.23;100.00;58621.06;4945613;28;20314;-56
2022/09/10 06:43:42;;;;;;;1.65;1.55;;;;;;;-145.23;100.00;58621.06;4949530;28;20251;-55
2022/09/10 06:46:12;;;;;;;1.83;1.65;;;;;;;-145.23;100.00;58621.06;4945289;28;20234;-56
2022/09/10 06:48:39;;;;;;;3.97;1.60;;;;;;;-145.23;100.00;58621.06;4946032;28;20731;-56
2022/09/10 06:51:07;;;;;;;2.50;1.50;;;;;;;-145.23;100.00;58621.06;4953297;28;20239;-55
2022/09/10 06:53:35;;;;;;;2.22;1.58;;;;;;;-145.23;100.00;58621.06;4948584;28;20258;-57
2022/09/10 06:56:02;;;;;;;2.92;1.40;;;;;;;-145.23;100.00;58621.06;4952147;28;20235;-56
2022/09/10 06:58:31;;;;;;;1.85;1.60;;;;;;;-145.23;100.00;58621.06;4951091;28;20242;-56
2022/09/10 07:00:57;;;;;;;1.50;1.40;;;;;;;-145.23;100.00;58621.06;4952250;28;20267;-56
2022/09/10 07:03:24;;;;;;;6.10;2.78;;;;;;;-145.23;100.00;58621.06;4955602;28;20234;-57
2022/09/10 07:05:53;;;;;;;3.63;2.17;;;;;;;-145.23;100.00;58621.06;4948728;28;20235;-57
2022/09/10 07:08:21;;;;;;;3.50;2.97;;;;;;;-145.23;100.00;58621.06;4958138;28;20231;-57
2022/09/10 07:10:48;;;;;;;3.80;2.33;;;;;;;-145.23;100.00;58621.06;4941704;28;20547;-57
2022/09/10 07:13:15;;;;;;;1.73;1.55;;;;;;;-145.23;100.00;58621.06;4944307;28;20306;-56
2022/09/10 07:15:46;;;;;;;4.25;1.90;;;;;;;-145.23;100.00;58621.06;4942540;28;20334;-57
2022/09/10 07:18:14;;;;;;;3.20;1.50;;;;;;;-145.23;100.00;58621.06;4943078;28;20703;-57
2022/09/10 07:20:42;;;;;;;2.95;1.60;;;;;;;-145.23;100.00;58621.06;4946010;28;20467;-58
2022/09/10 07:23:09;;;;;;;1.73;1.52;;;;;;;-145.23;100.00;58621.06;4941726;28;20748;-56
2022/09/10 07:25:37;;;;;;;4.13;1.73;;;;;;;-145.23;100.00;58621.06;4943161;28;20227;-55
2022/09/10 07:28:03;;;;;;;5.20;1.65;;;;;;;-145.23;100.00;58621.06;4943445;28;20243;-58
2022/09/10 07:30:30;;;;;;;4.88;2.47;;;;;;;-145.23;100.00;58621.06;4942221;28;20231;-56
2022/09/10 07:32:57;;;;;;;2.13;1.15;;;;;;;-145.23;100.00;58621.06;4942335;28;20419;-56
2022/09/10 07:35:24;;;;;;;2.72;1.50;;;;;;;-145.23;100.00;58621.06;4940309;28;20250;-56
2022/09/10 07:37:50;;;;;;;4.28;1.70;;;;;;;-145.23;100.00;58621.06;4943511;28;20238;-55
2022/09/10 07:40:17;;;;;;;2.90;1.80;;;;;;;-145.23;100.00;58621.06;4943661;28;20726;-56
2022/09/10 07:42:45;;;;;;;3.38;1.38;;;;;;;-145.23;100.00;58621.06;4944395;28;20227;-56
2022/09/10 07:45:15;;;;;;;3.17;1.58;;;;;;;-145.23;100.00;58621.06;4944914;28;20231;-57
2022/09/10 07:47:42;;;;;;;4.22;1.67;;;;;;;-145.23;100.00;58621.06;4941768;28;20609;-57
2022/09/10 07:50:09;;;;;;;3.95;2.05;;;;;;;-145.23;100.00;58621.06;4940463;28;20331;-57
2022/09/10 07:52:35;;;;;;;3.60;1.40;;;;;;;-145.23;100.00;58621.06;4935857;28;20664;-57
2022/09/10 07:55:03;;;;;;;1.77;1.58;;;;;;;-145.23;100.00;58621.06;4937793;28;20735;-56
2022/09/10 07:57:30;;;;;;;3.58;1.58;;;;;;;-145.23;100.00;58621.06;4934892;28;20422;-56
2022/09/10 07:59:59;;;;;;;3.22;1.40;;;;;;;-145.23;100.00;58621.06;4934847;28;20232;-56
2022/09/10 08:02:26;;;;;;;2.03;1.58;;;;;;;-145.23;100.00;58621.06;4937665;28;20247;-55
2022/09/10 08:04:52;;;;;;;1.92;1.10;;;;;;;-145.23;100.00;58621.06;4946403;28;20588;-58
2022/09/10 08:07:19;;;;;;;2.20;1.55;;;;;;;-145.23;100.00;58621.06;4940040;28;20254;-56
2022/09/10 08:09:45;;;;;;;2.00;1.50;;;;;;;-145.23;100.00;58621.06;4944598;28;20235;-55
2022/09/10 08:12:15;;;;;;;2.75;1.48;;;;;;;-145.23;100.00;58621.06;4946765;28;20343;-56
2022/09/10 08:14:42;;;;;;;1.38;1.15;;;;;;;-145.23;100.00;58621.06;4939837;28;20625;-58
2022/09/10 08:17:10;;;;;;;2.53;1.38;;;;;;;-145.23;100.00;58621.06;4940890;28;20318;-56
2022/09/10 08:19:37;;;;;;;3.75;1.70;;;;;;;-145.23;100.00;58621.06;4946236;28;20310;-56
2022/09/10 08:22:03;;;;;;;1.60;1.08;;;;;;;-145.23;100.00;58621.06;4943838;28;20382;-57
2022/09/10 08:24:30;;;;;;;1.83;1.23;;;;;;;-145.23;100.00;58621.06;4942621;28;20238;-56
2022/09/10 08:26:56;;;;;;;1.70;0.98;;;;;;;-145.23;100.00;58621.06;4942839;28;20236;-56
2022/09/10 08:29:23;;;;;;;2.33;0.98;;;;;;;-145.23;100.00;58621.06;4941521;28;20235;-56
2022/09/10 08:31:49;;;;;;;2.40;1.38;;;;;;;-145.23;100.00;58621.06;4948106;28;20230;-57
2022/09/10 08:34:17;;;;;;;1.45;0.88;;;;;;;-145.23;100.00;58621.06;4953958;28;20239;-58
2022/09/10 08:36:44;;;;;;;1.45;1.05;;;;;;;-145.23;100.00;58621.06;4943455;28;20235;-57
2022/09/10 08:39:11;;;;;;;1.70;1.15;;;;;;;-145.23;100.00;58621.06;4948674;28;20239;-57
2022/09/10 08:41:46;;;;;;;2.38;1.10;;;;;;;-145.23;100.00;58621.06;4945367;28;20235;-56
2022/09/10 08:44:19;;;;;;;1.88;1.20;;;;;;;-145.23;100.00;58621.06;4946425;28;20264;-58
2022/09/10 08:46:49;;;;;;;1.75;1.15;;;;;;;-145.23;100.00;58621.06;4940229;28;20240;-57
2022/09/10 08:49:20;;;;;;;1.65;1.30;;;;;;;-145.23;100.00;58621.06;4943810;28;20230;-57
2022/09/10 08:51:50;;;;;;;1.08;0.98;;;;;;;-145.23;100.00;58621.06;4945303;28;20235;-58
2022/09/10 08:54:21;;;;;;;6.25;1.25;;;;;;;-145.23;100.00;58621.06;4944125;28;20231;-57
2022/09/10 08:56:48;;;;;;;1.95;1.00;;;;;;;-145.23;100.00;58621.06;4956029;28;20238;-57
2022/09/10 08:59:21;;;;;;;2.47;1.10;;;;;;;-145.23;100.00;58621.06;4948776;28;20306;-58
2022/09/10 09:01:51;;;;;;;1.52;0.90;;;;;;;-145.23;100.00;58621.06;4942784;28;20231;-58
2022/09/10 09:04:25;;;;;;;1.23;0.90;;;;;;;-145.23;100.00;58621.06;4942009;28;20247;-57
2022/09/10 09:06:54;;;;;;;7.68;1.33;;;;;;;-145.23;100.00;58621.06;4947618;28;20576;-57
2022/09/10 09:09:21;;;;;;;1.05;0.70;;;;;;;-145.23;100.00;58621.06;4940296;28;20255;-58
2022/09/10 09:11:52;;;;;;;0.93;0.70;;;;;;;-145.23;100.00;58621.06;4947340;28;20294;-57
2022/09/10 09:14:32;;;;;;;0.90;0.80;;;;;;;-145.23;100.00;58621.06;4948820;28;20239;-57
2022/09/10 09:17:27;;;;;;;1.45;0.95;;;;;;;-145.23;100.00;58621.06;4950852;28;20740;-56
2022/09/10 09:20:01;;;;;;;3.08;1.00;;;;;;;-145.23;100.00;58621.06;4941176;28;20260;-57
2022/09/10 09:22:34;;;;;;;1.13;0.90;;;;;;;-145.23;100.00;58621.06;4940674;28;20259;-57
2022/09/10 09:25:08;;;;;;;2.92;1.10;;;;;;;-145.23;100.00;58621.06;4933827;28;20250;-58
2022/09/10 09:27:36;;;;;;;2.50;1.25;;;;;;;-145.23;100.00;58621.06;4940295;28;20259;-58
2022/09/10 09:30:05;;;;;;;1.77;1.05;;;;;;;-145.23;100.00;58621.06;4944540;28;20987;-59
2022/09/10 09:32:35;;;;;;;0.50;0.45;;;;;;;-145.23;100.00;58621.06;4945189;28;20259;-58
2022/09/10 09:35:11;;;;;;;2.55;1.33;;;;;;;-145.23;100.00;58621.06;4946361;28;20246;-59
2022/09/10 09:37:38;;;;;;;1.35;0.70;;;;;;;-145.23;100.00;58621.06;4950081;28;20366;-60
2022/09/10 09:40:13;;;;;;;3.17;1.00;;;;;;;-145.23;100.00;58621.06;4947198;28;20243;-59
2022/09/10 09:42:45;;;;;;;1.42;0.90;;;;;;;-145.23;100.00;58621.06;4944954;28;20337;-59
2022/09/10 09:45:20;;;;;;;2.17;1.10;;;;;;;-145.23;100.00;58621.06;4947073;28;20226;-59
2022/09/10 09:47:48;;;;;;;0.60;0.60;;;;;;;-145.23;100.00;58621.06;4944935;28;20245;-59
2022/09/10 09:50:18;;;;;;;1.27;0.88;;;;;;;-145.23;100.00;58621.06;4939204;28;20236;-59
2022/09/10 09:52:45;;;;;;;2.70;1.10;;;;;;;-145.23;100.00;58621.06;4942696;28;20259;-58
2022/09/10 09:55:27;;;;;;;1.38;0.85;;;;;;;-145.23;100.00;58621.06;4934894;28;20554;-62
2022/09/10 09:58:32;;;;;;;2.33;1.00;;;;;;;-145.23;100.00;58621.06;4947310;28;20243;-58
2022/09/10 10:01:16;;;;;;;3.83;0.90;;;;;;;-145.23;100.00;58621.06;4944649;28;20247;-59
2022/09/10 10:03:57;;;;;;;1.40;0.70;;;;;;;-145.23;100.00;58621.06;4935761;28;20831;-58
2022/09/10 10:06:26;;;;;;;1.25;0.80;;;;;;;-145.23;100.00;58621.06;4941376;28;20238;-59
2022/09/10 10:08:56;;;;;;;1.70;1.20;;;;;;;-145.23;100.00;58621.06;4944097;28;20239;-58
2022/09/10 10:11:22;;;;;;;3.55;1.20;;;;;;;-145.23;100.00;58621.06;4943176;28;20235;-57
2022/09/10 10:13:50;;;;;;;0.63;0.57;;;;;;;-145.23;100.00;58621.06;4945552;28;20247;-58
2022/09/10 10:16:19;;;;;;;2.15;0.85;;;;;;;-145.23;100.00;58621.06;4945967;28;20708;-60
2022/09/10 10:18:46;;;;;;;1.33;0.80;;;;;;;-145.23;100.00;58621.06;4941506;28;20604;-60
2022/09/10 10:21:15;;;;;;;2.30;1.13;;;;;;;-145.23;100.00;58621.06;4945151;28;20243;-58
2022/09/10 10:23:43;;;;;;;1.30;0.80;;;;;;;-145.23;100.00;58621.06;4946660;28;20334;-59
2022/09/10 10:26:22;;;;;;;2.03;0.90;;;;;;;-145.23;100.00;58621.06;4945257;28;20239;-58
2022/09/10 10:28:50;;;;;;;1.50;0.70;;;;;;;-145.23;100.00;58621.06;4944367;28;20243;-58
2022/09/10 10:31:17;;;;;;;2.45;0.90;;;;;;;-145.23;100.00;58621.06;4941950;28;20610;-60
2022/09/10 10:33:48;;;;;;;1.25;1.00;;;;;;;-145.23;100.00;58621.06;4937857;28;20235;-59
2022/09/10 10:36:19;;;;;;;2.08;0.63;;;;;;;-145.23;100.00;58621.06;4949034;28;20246;-59
2022/09/10 10:38:49;;;;;;;2.50;0.93;;;;;;;-145.23;100.00;58621.06;4941279;28;20249;-59
2022/09/10 10:41:51;;;;;;;2.10;1.20;;;;;;;-145.23;100.00;58621.06;4944744;28;20243;-59
2022/09/10 10:44:30;;;;;;;2.10;0.98;;;;;;;-145.23;100.00;58621.06;4896881;29;20300;-59
2022/09/10 10:47:18;;;;;;;1.92;0.60;;;;;;;-145.23;100.00;58621.06;4907268;29;20426;-59
2022/09/10 10:49:53;;;;;;;2.08;0.88;;;;;;;-145.23;100.00;58621.06;4934069;28;20230;-58
2022/09/10 10:52:24;;;;;;;1.70;0.75;;;;;;;-145.23;100.00;58621.06;4947810;28;20306;-59
2022/09/10 10:55:01;;;;;;;2.30;1.20;;;;;;;-145.23;100.00;58621.06;4937054;28;20266;-59
2022/09/10 10:57:39;;;;;;;0.60;0.60;;;;;;;-145.23;100.00;58621.06;4948386;28;20712;-58
2022/09/10 11:00:09;;;;;;;0.90;0.50;;;;;;;-145.23;100.00;58621.06;4943978;28;20325;-60
2022/09/10 11:02:40;;;;;;;2.22;1.08;;;;;;;-145.23;100.00;58621.06;4941198;28;20238;-59
2022/09/10 11:05:19;;;;;;;1.20;0.80;;;;;;;-145.23;100.00;58621.06;4937222;28;20258;-60
2022/09/10 11:07:46;;;;;;;0.60;0.55;;;;;;;-145.23;100.00;58621.06;4941957;28;20727;-60
2022/09/10 11:10:19;;;;;;;3.25;1.42;;;;;;;-145.23;100.00;58621.06;4944703;28;20234;-60
2022/09/10 11:12:50;;;;;;;1.42;0.80;;;;;;;-145.23;100.00;58621.06;4936331;28;20694;-60
2022/09/10 11:15:23;;;;;;;1.23;0.65;;;;;;;-145.23;100.00;58621.06;4945883;28;20232;-60
2022/09/10 11:17:53;;;;;;;2.35;1.00;;;;;;;-145.23;100.00;58621.06;4945125;28;20266;-60